<?xml version="1.0" encoding="UTF-8" standalone="yes"?>
<gpx
 xmlns="http://www.topografix.com/GPX/1/1"
 creator="OziExplorer Version 3955k - http://www.oziexplorer.com"
 version="1.1"
 xmlns:xsi="http://www.w3.org/2001/XMLSchema-instance"
 xsi:schemaLocation="http://www.topografix.com/GPX/1/1 http://www.topografix.com/GPX/1/1/gpx.xsd">
<metadata>
 <time>2013-06-08T12:45:26Z</time>
 <bounds minlat="32.978927" minlon="35.102918" maxlat="33.099357" maxlon="35.350010"/>
</metadata>
<trk>
 <desc>6/8/2013 3:01:15 PM</desc>
<trkseg>
<trkpt lat="33.0442211" lon="35.1101619">
<ele>0.000000</ele>
<time>2013-06-08T12:01:15.020Z</time>
</trkpt>
<trkpt lat="33.0446412" lon="35.1075691">
<ele>0.000000</ele>
<time>2013-06-08T12:01:47.048Z</time>
</trkpt>
<trkpt lat="33.0454497" lon="35.1060629">
<ele>0.000000</ele>
<time>2013-06-08T12:01:49.096Z</time>
</trkpt>
<trkpt lat="33.0456959" lon="35.1057281">
<ele>0.000000</ele>
<time>2013-06-08T12:01:51.055Z</time>
</trkpt>
<trkpt lat="33.0475969" lon="35.1048897">
<ele>0.000000</ele>
<time>2013-06-08T12:01:53.016Z</time>
</trkpt>
<trkpt lat="33.0490397" lon="35.1036754">
<ele>0.000000</ele>
<time>2013-06-08T12:01:55.026Z</time>
</trkpt>
<trkpt lat="33.0500958" lon="35.1032142">
<ele>0.000000</ele>
<time>2013-06-08T12:01:56.066Z</time>
</trkpt>
<trkpt lat="33.0512931" lon="35.1030456">
<ele>0.000000</ele>
<time>2013-06-08T12:01:58.043Z</time>
</trkpt>
<trkpt lat="33.0532653" lon="35.1029179">
<ele>0.000000</ele>
<time>2013-06-08T12:02:03.002Z</time>
</trkpt>
<trkpt lat="33.0548504" lon="35.1031251">
<ele>0.000000</ele>
<time>2013-06-08T12:02:04.026Z</time>
</trkpt>
<trkpt lat="33.0564004" lon="35.1034997">
<ele>0.000000</ele>
<time>2013-06-08T12:02:05.082Z</time>
</trkpt>
<trkpt lat="33.0580569" lon="35.1046688">
<ele>0.000000</ele>
<time>2013-06-08T12:02:07.046Z</time>
</trkpt>
<trkpt lat="33.0610879" lon="35.1067145">
<ele>0.000000</ele>
<time>2013-06-08T12:02:08.098Z</time>
</trkpt>
<trkpt lat="33.0663393" lon="35.1104728">
<ele>0.000000</ele>
<time>2013-06-08T12:02:13.030Z</time>
</trkpt>
<trkpt lat="33.0714853" lon="35.1145662">
<ele>0.000000</ele>
<time>2013-06-08T12:02:15.067Z</time>
</trkpt>
<trkpt lat="33.0749376" lon="35.1153993">
<ele>0.000000</ele>
<time>2013-06-08T12:02:19.089Z</time>
</trkpt>
<trkpt lat="33.0748771" lon="35.1265672">
<ele>0.000000</ele>
<time>2013-06-08T12:02:22.074Z</time>
</trkpt>
<trkpt lat="33.0757963" lon="35.1307492">
<ele>0.000000</ele>
<time>2013-06-08T12:02:24.088Z</time>
</trkpt>
<trkpt lat="33.0759379" lon="35.1316693">
<ele>0.000000</ele>
<time>2013-06-08T12:02:26.050Z</time>
</trkpt>
<trkpt lat="33.0773842" lon="35.1345542">
<ele>0.000000</ele>
<time>2013-06-08T12:02:27.096Z</time>
</trkpt>
<trkpt lat="33.0771745" lon="35.1366040">
<ele>0.000000</ele>
<time>2013-06-08T12:02:29.021Z</time>
</trkpt>
<trkpt lat="33.0762248" lon="35.1382360">
<ele>0.000000</ele>
<time>2013-06-08T12:02:32.047Z</time>
</trkpt>
<trkpt lat="33.0753830" lon="35.1429632">
<ele>0.000000</ele>
<time>2013-06-08T12:02:36.056Z</time>
</trkpt>
<trkpt lat="33.0733443" lon="35.1489040">
<ele>0.000000</ele>
<time>2013-06-08T12:02:38.073Z</time>
</trkpt>
<trkpt lat="33.0705291" lon="35.1524191">
<ele>0.000000</ele>
<time>2013-06-08T12:02:40.093Z</time>
</trkpt>
<trkpt lat="33.0699652" lon="35.1517920">
<ele>0.000000</ele>
<time>2013-06-08T12:02:44.050Z</time>
</trkpt>
<trkpt lat="33.0689429" lon="35.1504542">
<ele>0.000000</ele>
<time>2013-06-08T12:02:46.028Z</time>
</trkpt>
<trkpt lat="33.0675688" lon="35.1496186">
<ele>0.000000</ele>
<time>2013-06-08T12:02:47.058Z</time>
</trkpt>
<trkpt lat="33.0661247" lon="35.1494940">
<ele>0.000000</ele>
<time>2013-06-08T12:02:48.096Z</time>
</trkpt>
<trkpt lat="33.0637301" lon="35.1499556">
<ele>0.000000</ele>
<time>2013-06-08T12:02:50.033Z</time>
</trkpt>
<trkpt lat="33.0608075" lon="35.1508775">
<ele>0.000000</ele>
<time>2013-06-08T12:02:51.096Z</time>
</trkpt>
<trkpt lat="33.0566517" lon="35.1510891">
<ele>0.000000</ele>
<time>2013-06-08T12:02:56.075Z</time>
</trkpt>
<trkpt lat="33.0557714" lon="35.1514242">
<ele>0.000000</ele>
<time>2013-06-08T12:02:58.052Z</time>
</trkpt>
<trkpt lat="33.0549266" lon="35.1521774">
<ele>0.000000</ele>
<time>2013-06-08T12:02:59.097Z</time>
</trkpt>
<trkpt lat="33.0539058" lon="35.1530144">
<ele>0.000000</ele>
<time>2013-06-08T12:03:01.066Z</time>
</trkpt>
<trkpt lat="33.0527790" lon="35.1534332">
<ele>0.000000</ele>
<time>2013-06-08T12:03:03.052Z</time>
</trkpt>
<trkpt lat="33.0514757" lon="35.1530994">
<ele>0.000000</ele>
<time>2013-06-08T12:03:05.046Z</time>
</trkpt>
<trkpt lat="33.0502425" lon="35.1522220">
<ele>0.000000</ele>
<time>2013-06-08T12:03:07.050Z</time>
</trkpt>
<trkpt lat="33.0497135" lon="35.1511351">
<ele>0.000000</ele>
<time>2013-06-08T12:03:08.096Z</time>
</trkpt>
<trkpt lat="33.0490431" lon="35.1493375">
<ele>0.000000</ele>
<time>2013-06-08T12:03:11.006Z</time>
</trkpt>
<trkpt lat="33.0484791" lon="35.1486688">
<ele>0.000000</ele>
<time>2013-06-08T12:03:12.046Z</time>
</trkpt>
<trkpt lat="33.0475280" lon="35.1482931">
<ele>0.000000</ele>
<time>2013-06-08T12:03:13.071Z</time>
</trkpt>
<trkpt lat="33.0468585" lon="35.1479172">
<ele>0.000000</ele>
<time>2013-06-08T12:03:17.001Z</time>
</trkpt>
<trkpt lat="33.0455555" lon="35.1480435">
<ele>0.000000</ele>
<time>2013-06-08T12:03:18.050Z</time>
</trkpt>
<trkpt lat="33.0418927" lon="35.1481294">
<ele>0.000000</ele>
<time>2013-06-08T12:03:24.008Z</time>
</trkpt>
<trkpt lat="33.0421049" lon="35.1495091">
<ele>0.000000</ele>
<time>2013-06-08T12:03:27.025Z</time>
</trkpt>
<trkpt lat="33.0447851" lon="35.1548595">
<ele>0.000000</ele>
<time>2013-06-08T12:03:31.051Z</time>
</trkpt>
<trkpt lat="33.0434487" lon="35.1582052">
<ele>0.000000</ele>
<time>2013-06-08T12:03:34.028Z</time>
</trkpt>
<trkpt lat="33.0445427" lon="35.1619260">
<ele>0.000000</ele>
<time>2013-06-08T12:03:38.097Z</time>
</trkpt>
<trkpt lat="33.0441218" lon="35.1650204">
<ele>0.000000</ele>
<time>2013-06-08T12:03:41.055Z</time>
</trkpt>
<trkpt lat="33.0452853" lon="35.1674868">
<ele>0.000000</ele>
<time>2013-06-08T12:03:46.055Z</time>
</trkpt>
<trkpt lat="33.0450747" lon="35.1688249">
<ele>0.000000</ele>
<time>2013-06-08T12:03:48.075Z</time>
</trkpt>
<trkpt lat="33.0462032" lon="35.1717514">
<ele>0.000000</ele>
<time>2013-06-08T12:03:51.033Z</time>
</trkpt>
<trkpt lat="33.0489861" lon="35.1729212">
<ele>0.000000</ele>
<time>2013-06-08T12:03:59.008Z</time>
</trkpt>
<trkpt lat="33.0498321" lon="35.1745517">
<ele>0.000000</ele>
<time>2013-06-08T12:04:03.010Z</time>
</trkpt>
<trkpt lat="33.0496938" lon="35.1804895">
<ele>0.000000</ele>
<time>2013-06-08T12:04:08.055Z</time>
</trkpt>
<trkpt lat="33.0487077" lon="35.1805734">
<ele>0.000000</ele>
<time>2013-06-08T12:04:10.085Z</time>
</trkpt>
<trkpt lat="33.0485329" lon="35.1838769">
<ele>0.000000</ele>
<time>2013-06-08T12:04:13.096Z</time>
</trkpt>
<trkpt lat="33.0481808" lon="35.1840442">
<ele>0.000000</ele>
<time>2013-06-08T12:04:15.055Z</time>
</trkpt>
<trkpt lat="33.0480406" lon="35.1857586">
<ele>0.000000</ele>
<time>2013-06-08T12:04:17.076Z</time>
</trkpt>
<trkpt lat="33.0489568" lon="35.1870129">
<ele>0.000000</ele>
<time>2013-06-08T12:04:19.088Z</time>
</trkpt>
<trkpt lat="33.0516689" lon="35.1875560">
<ele>0.000000</ele>
<time>2013-06-08T12:04:21.093Z</time>
</trkpt>
<trkpt lat="33.0533951" lon="35.1888101">
<ele>0.000000</ele>
<time>2013-06-08T12:04:24.050Z</time>
</trkpt>
<trkpt lat="33.0543462" lon="35.1892700">
<ele>0.000000</ele>
<time>2013-06-08T12:04:26.008Z</time>
</trkpt>
<trkpt lat="33.0561423" lon="35.1891442">
<ele>0.000000</ele>
<time>2013-06-08T12:04:39.048Z</time>
</trkpt>
<trkpt lat="33.0560022" lon="35.1914860">
<ele>0.000000</ele>
<time>2013-06-08T12:04:41.097Z</time>
</trkpt>
<trkpt lat="33.0555093" lon="35.1918625">
<ele>0.000000</ele>
<time>2013-06-08T12:04:44.039Z</time>
</trkpt>
<trkpt lat="33.0554043" lon="35.1942043">
<ele>0.000000</ele>
<time>2013-06-08T12:04:46.003Z</time>
</trkpt>
<trkpt lat="33.0550175" lon="35.1962953">
<ele>0.000000</ele>
<time>2013-06-08T12:04:48.071Z</time>
</trkpt>
<trkpt lat="33.0537505" lon="35.1993480">
<ele>0.000000</ele>
<time>2013-06-08T12:04:51.074Z</time>
</trkpt>
<trkpt lat="33.0532221" lon="35.1990554">
<ele>0.000000</ele>
<time>2013-06-08T12:04:53.094Z</time>
</trkpt>
<trkpt lat="33.0528701" lon="35.1998499">
<ele>0.000000</ele>
<time>2013-06-08T12:04:55.067Z</time>
</trkpt>
<trkpt lat="33.0529406" lon="35.2002262">
<ele>0.000000</ele>
<time>2013-06-08T12:04:58.075Z</time>
</trkpt>
<trkpt lat="33.0527294" lon="35.2003517">
<ele>0.000000</ele>
<time>2013-06-08T12:05:00.017Z</time>
</trkpt>
<trkpt lat="33.0524123" lon="35.1999336">
<ele>0.000000</ele>
<time>2013-06-08T12:05:01.066Z</time>
</trkpt>
<trkpt lat="33.0519897" lon="35.2001427">
<ele>0.000000</ele>
<time>2013-06-08T12:05:03.016Z</time>
</trkpt>
<trkpt lat="33.0516729" lon="35.2006863">
<ele>0.000000</ele>
<time>2013-06-08T12:05:04.067Z</time>
</trkpt>
<trkpt lat="33.0514616" lon="35.2011045">
<ele>0.000000</ele>
<time>2013-06-08T12:05:09.038Z</time>
</trkpt>
<trkpt lat="33.0506870" lon="35.2016899">
<ele>0.000000</ele>
<time>2013-06-08T12:05:11.041Z</time>
</trkpt>
<trkpt lat="33.0506518" lon="35.2020663">
<ele>0.000000</ele>
<time>2013-06-08T12:05:13.085Z</time>
</trkpt>
<trkpt lat="33.0501588" lon="35.2024426">
<ele>0.000000</ele>
<time>2013-06-08T12:05:15.030Z</time>
</trkpt>
<trkpt lat="33.0501239" lon="35.2036553">
<ele>0.000000</ele>
<time>2013-06-08T12:05:17.093Z</time>
</trkpt>
<trkpt lat="33.0505115" lon="35.2043243">
<ele>0.000000</ele>
<time>2013-06-08T12:05:19.098Z</time>
</trkpt>
<trkpt lat="33.0507231" lon="35.2056206">
<ele>0.000000</ele>
<time>2013-06-08T12:05:21.008Z</time>
</trkpt>
<trkpt lat="33.0504063" lon="35.2066660">
<ele>0.000000</ele>
<time>2013-06-08T12:05:23.056Z</time>
</trkpt>
<trkpt lat="33.0504425" lon="35.2117257">
<ele>0.000000</ele>
<time>2013-06-08T12:05:26.073Z</time>
</trkpt>
<trkpt lat="33.0503369" lon="35.2126038">
<ele>0.000000</ele>
<time>2013-06-08T12:05:30.067Z</time>
</trkpt>
<trkpt lat="33.0500202" lon="35.2142346">
<ele>0.000000</ele>
<time>2013-06-08T12:05:32.035Z</time>
</trkpt>
<trkpt lat="33.0528028" lon="35.2162839">
<ele>0.000000</ele>
<time>2013-06-08T12:05:34.024Z</time>
</trkpt>
<trkpt lat="33.0527324" lon="35.2166185">
<ele>0.000000</ele>
<time>2013-06-08T12:05:35.069Z</time>
</trkpt>
<trkpt lat="33.0521690" lon="35.2171202">
<ele>0.000000</ele>
<time>2013-06-08T12:05:37.039Z</time>
</trkpt>
<trkpt lat="33.0518169" lon="35.2176638">
<ele>0.000000</ele>
<time>2013-06-08T12:05:42.026Z</time>
</trkpt>
<trkpt lat="33.0506549" lon="35.2206325">
<ele>0.000000</ele>
<time>2013-06-08T12:05:46.050Z</time>
</trkpt>
<trkpt lat="33.0502676" lon="35.2223469">
<ele>0.000000</ele>
<time>2013-06-08T12:10:49.085Z</time>
</trkpt>
<trkpt lat="33.0507960" lon="35.2233506">
<ele>0.000000</ele>
<time>2013-06-08T12:10:52.058Z</time>
</trkpt>
<trkpt lat="33.0519230" lon="35.2232254">
<ele>0.000000</ele>
<time>2013-06-08T12:10:54.075Z</time>
</trkpt>
<trkpt lat="33.0524513" lon="35.2234764">
<ele>0.000000</ele>
<time>2013-06-08T12:10:55.097Z</time>
</trkpt>
<trkpt lat="33.0532967" lon="35.2256929">
<ele>0.000000</ele>
<time>2013-06-08T12:10:57.069Z</time>
</trkpt>
<trkpt lat="33.0545647" lon="35.2268640">
<ele>0.000000</ele>
<time>2013-06-08T12:10:58.083Z</time>
</trkpt>
<trkpt lat="33.0549522" lon="35.2278260">
<ele>0.000000</ele>
<time>2013-06-08T12:11:00.061Z</time>
</trkpt>
<trkpt lat="33.0565371" lon="35.2302937">
<ele>0.000000</ele>
<time>2013-06-08T12:11:03.016Z</time>
</trkpt>
<trkpt lat="33.0576641" lon="35.2298758">
<ele>0.000000</ele>
<time>2013-06-08T12:11:08.078Z</time>
</trkpt>
<trkpt lat="33.0580515" lon="35.2294159">
<ele>0.000000</ele>
<time>2013-06-08T12:11:10.019Z</time>
</trkpt>
<trkpt lat="33.0603760" lon="35.2300438">
<ele>0.000000</ele>
<time>2013-06-08T12:11:12.096Z</time>
</trkpt>
<trkpt lat="33.0605162" lon="35.2184178">
<ele>0.000000</ele>
<time>2013-06-08T12:11:15.019Z</time>
</trkpt>
<trkpt lat="33.0610792" lon="35.2148213">
<ele>0.000000</ele>
<time>2013-06-08T12:11:22.070Z</time>
</trkpt>
<trkpt lat="33.0636130" lon="35.2035296">
<ele>0.000000</ele>
<time>2013-06-08T12:11:25.074Z</time>
</trkpt>
<trkpt lat="33.0656542" lon="35.1975489">
<ele>0.000000</ele>
<time>2013-06-08T12:11:27.088Z</time>
</trkpt>
<trkpt lat="33.0686467" lon="35.1934081">
<ele>0.000000</ele>
<time>2013-06-08T12:11:33.026Z</time>
</trkpt>
<trkpt lat="33.0701961" lon="35.1926968">
<ele>0.000000</ele>
<time>2013-06-08T12:11:35.023Z</time>
</trkpt>
<trkpt lat="33.0707239" lon="35.1910656">
<ele>0.000000</ele>
<time>2013-06-08T12:11:37.030Z</time>
</trkpt>
<trkpt lat="33.0706881" lon="35.1895599">
<ele>0.000000</ele>
<time>2013-06-08T12:11:39.019Z</time>
</trkpt>
<trkpt lat="33.0703000" lon="35.1873850">
<ele>0.000000</ele>
<time>2013-06-08T12:11:40.070Z</time>
</trkpt>
<trkpt lat="33.0706517" lon="35.1860884">
<ele>0.000000</ele>
<time>2013-06-08T12:11:42.050Z</time>
</trkpt>
<trkpt lat="33.0723068" lon="35.1854188">
<ele>0.000000</ele>
<time>2013-06-08T12:11:44.023Z</time>
</trkpt>
<trkpt lat="33.0731869" lon="35.1844566">
<ele>0.000000</ele>
<time>2013-06-08T12:11:45.056Z</time>
</trkpt>
<trkpt lat="33.0741381" lon="35.1852093">
<ele>0.000000</ele>
<time>2013-06-08T12:11:47.033Z</time>
</trkpt>
<trkpt lat="33.0744550" lon="35.1849164">
<ele>0.000000</ele>
<time>2013-06-08T12:11:48.088Z</time>
</trkpt>
<trkpt lat="33.0743840" lon="35.1835779">
<ele>0.000000</ele>
<time>2013-06-08T12:11:50.019Z</time>
</trkpt>
<trkpt lat="33.0749468" lon="35.1816537">
<ele>0.000000</ele>
<time>2013-06-08T12:11:52.008Z</time>
</trkpt>
<trkpt lat="33.0758271" lon="35.1812771">
<ele>0.000000</ele>
<time>2013-06-08T12:11:53.094Z</time>
</trkpt>
<trkpt lat="33.0758272" lon="35.1815699">
<ele>0.000000</ele>
<time>2013-06-08T12:11:55.035Z</time>
</trkpt>
<trkpt lat="33.0753698" lon="35.1825738">
<ele>0.000000</ele>
<time>2013-06-08T12:11:57.089Z</time>
</trkpt>
<trkpt lat="33.0753700" lon="35.1832013">
<ele>0.000000</ele>
<time>2013-06-08T12:11:58.094Z</time>
</trkpt>
<trkpt lat="33.0756518" lon="35.1833685">
<ele>0.000000</ele>
<time>2013-06-08T12:12:00.091Z</time>
</trkpt>
<trkpt lat="33.0760038" lon="35.1827410">
<ele>0.000000</ele>
<time>2013-06-08T12:12:02.002Z</time>
</trkpt>
<trkpt lat="33.0763910" lon="35.1823226">
<ele>0.000000</ele>
<time>2013-06-08T12:12:04.053Z</time>
</trkpt>
<trkpt lat="33.0758282" lon="35.1839959">
<ele>0.000000</ele>
<time>2013-06-08T12:12:05.093Z</time>
</trkpt>
<trkpt lat="33.0767435" lon="35.1829500">
<ele>0.000000</ele>
<time>2013-06-08T12:12:07.066Z</time>
</trkpt>
<trkpt lat="33.0761454" lon="35.1845814">
<ele>0.000000</ele>
<time>2013-06-08T12:12:10.033Z</time>
</trkpt>
<trkpt lat="33.0762517" lon="35.1865055">
<ele>0.000000</ele>
<time>2013-06-08T12:12:11.088Z</time>
</trkpt>
<trkpt lat="33.0760761" lon="35.1878022">
<ele>0.000000</ele>
<time>2013-06-08T12:12:13.030Z</time>
</trkpt>
<trkpt lat="33.0764983" lon="35.1865891">
<ele>0.000000</ele>
<time>2013-06-08T12:12:16.097Z</time>
</trkpt>
<trkpt lat="33.0766036" lon="35.1856688">
<ele>0.000000</ele>
<time>2013-06-08T12:12:18.074Z</time>
</trkpt>
<trkpt lat="33.0772379" lon="35.1865471">
<ele>0.000000</ele>
<time>2013-06-08T12:12:21.039Z</time>
</trkpt>
<trkpt lat="33.0767805" lon="35.1877184">
<ele>0.000000</ele>
<time>2013-06-08T12:12:22.080Z</time>
</trkpt>
<trkpt lat="33.0772391" lon="35.1899770">
<ele>0.000000</ele>
<time>2013-06-08T12:12:25.061Z</time>
</trkpt>
<trkpt lat="33.0781907" lon="35.1919010">
<ele>0.000000</ele>
<time>2013-06-08T12:12:27.060Z</time>
</trkpt>
<trkpt lat="33.0787894" lon="35.1919845">
<ele>0.000000</ele>
<time>2013-06-08T12:12:28.089Z</time>
</trkpt>
<trkpt lat="33.0791769" lon="35.1922773">
<ele>0.000000</ele>
<time>2013-06-08T12:12:29.083Z</time>
</trkpt>
<trkpt lat="33.0798460" lon="35.1920681">
<ele>0.000000</ele>
<time>2013-06-08T12:12:31.023Z</time>
</trkpt>
<trkpt lat="33.0803745" lon="35.1925281">
<ele>0.000000</ele>
<time>2013-06-08T12:12:32.043Z</time>
</trkpt>
<trkpt lat="33.0809382" lon="35.1931973">
<ele>0.000000</ele>
<time>2013-06-08T12:12:33.066Z</time>
</trkpt>
<trkpt lat="33.0809032" lon="35.1938248">
<ele>0.000000</ele>
<time>2013-06-08T12:12:34.071Z</time>
</trkpt>
<trkpt lat="33.0810794" lon="35.1942012">
<ele>0.000000</ele>
<time>2013-06-08T12:12:39.021Z</time>
</trkpt>
<trkpt lat="33.0818546" lon="35.1953724">
<ele>0.000000</ele>
<time>2013-06-08T12:12:40.070Z</time>
</trkpt>
<trkpt lat="33.0814677" lon="35.1973803">
<ele>0.000000</ele>
<time>2013-06-08T12:12:43.008Z</time>
</trkpt>
<trkpt lat="33.0818555" lon="35.1986770">
<ele>0.000000</ele>
<time>2013-06-08T12:12:45.028Z</time>
</trkpt>
<trkpt lat="33.0809395" lon="35.1975895">
<ele>0.000000</ele>
<time>2013-06-08T12:12:48.094Z</time>
</trkpt>
<trkpt lat="33.0817853" lon="35.1995973">
<ele>0.000000</ele>
<time>2013-06-08T12:12:52.078Z</time>
</trkpt>
<trkpt lat="33.0821375" lon="35.1997227">
<ele>0.000000</ele>
<time>2013-06-08T12:12:54.066Z</time>
</trkpt>
<trkpt lat="33.0830179" lon="35.1993880">
<ele>0.000000</ele>
<time>2013-06-08T12:12:57.033Z</time>
</trkpt>
<trkpt lat="33.0832293" lon="35.1995135">
<ele>0.000000</ele>
<time>2013-06-08T12:12:58.066Z</time>
</trkpt>
<trkpt lat="33.0823843" lon="35.2007685">
<ele>0.000000</ele>
<time>2013-06-08T12:13:00.003Z</time>
</trkpt>
<trkpt lat="33.0817505" lon="35.2012287">
<ele>0.000000</ele>
<time>2013-06-08T12:13:01.089Z</time>
</trkpt>
<trkpt lat="33.0812937" lon="35.2058719">
<ele>0.000000</ele>
<time>2013-06-08T12:13:05.032Z</time>
</trkpt>
<trkpt lat="33.0813294" lon="35.2080470">
<ele>0.000000</ele>
<time>2013-06-08T12:13:07.053Z</time>
</trkpt>
<trkpt lat="33.0812593" lon="35.2102640">
<ele>0.000000</ele>
<time>2013-06-08T12:13:09.082Z</time>
</trkpt>
<trkpt lat="33.0814362" lon="35.2149072">
<ele>0.000000</ele>
<time>2013-06-08T12:13:12.032Z</time>
</trkpt>
<trkpt lat="33.0810137" lon="35.2163712">
<ele>0.000000</ele>
<time>2013-06-08T12:13:14.093Z</time>
</trkpt>
<trkpt lat="33.0813309" lon="35.2182536">
<ele>0.000000</ele>
<time>2013-06-08T12:13:18.094Z</time>
</trkpt>
<trkpt lat="33.0821412" lon="35.2207636">
<ele>0.000000</ele>
<time>2013-06-08T12:13:20.023Z</time>
</trkpt>
<trkpt lat="33.0827050" lon="35.2244030">
<ele>0.000000</ele>
<time>2013-06-08T12:13:23.019Z</time>
</trkpt>
<trkpt lat="33.0830220" lon="35.2249051">
<ele>0.000000</ele>
<time>2013-06-08T12:13:24.088Z</time>
</trkpt>
<trkpt lat="33.0864736" lon="35.2279596">
<ele>0.000000</ele>
<time>2013-06-08T12:13:27.065Z</time>
</trkpt>
<trkpt lat="33.0883403" lon="35.2306793">
<ele>0.000000</ele>
<time>2013-06-08T12:13:29.033Z</time>
</trkpt>
<trkpt lat="33.0889039" lon="35.2326457">
<ele>0.000000</ele>
<time>2013-06-08T12:13:31.028Z</time>
</trkpt>
<trkpt lat="33.0891152" lon="35.2337753">
<ele>0.000000</ele>
<time>2013-06-08T12:13:32.078Z</time>
</trkpt>
<trkpt lat="33.0895378" lon="35.2346958">
<ele>0.000000</ele>
<time>2013-06-08T12:13:35.075Z</time>
</trkpt>
<trkpt lat="33.0891503" lon="35.2356996">
<ele>0.000000</ele>
<time>2013-06-08T12:13:37.065Z</time>
</trkpt>
<trkpt lat="33.0895729" lon="35.2367038">
<ele>0.000000</ele>
<time>2013-06-08T12:13:39.048Z</time>
</trkpt>
<trkpt lat="33.0892207" lon="35.2379587">
<ele>0.000000</ele>
<time>2013-06-08T12:13:40.076Z</time>
</trkpt>
<trkpt lat="33.0894672" lon="35.2392557">
<ele>0.000000</ele>
<time>2013-06-08T12:13:42.071Z</time>
</trkpt>
<trkpt lat="33.0902419" lon="35.2400090">
<ele>0.000000</ele>
<time>2013-06-08T12:13:45.076Z</time>
</trkpt>
<trkpt lat="33.0907702" lon="35.2404694">
<ele>0.000000</ele>
<time>2013-06-08T12:13:49.015Z</time>
</trkpt>
<trkpt lat="33.0908054" lon="35.2408459">
<ele>0.000000</ele>
<time>2013-06-08T12:13:50.015Z</time>
</trkpt>
<trkpt lat="33.0901714" lon="35.2415987">
<ele>0.000000</ele>
<time>2013-06-08T12:13:52.024Z</time>
</trkpt>
<trkpt lat="33.0904179" lon="35.2422263">
<ele>0.000000</ele>
<time>2013-06-08T12:13:54.096Z</time>
</trkpt>
<trkpt lat="33.0911926" lon="35.2430215">
<ele>0.000000</ele>
<time>2013-06-08T12:13:56.044Z</time>
</trkpt>
<trkpt lat="33.0921083" lon="35.2431474">
<ele>0.000000</ele>
<time>2013-06-08T12:13:57.088Z</time>
</trkpt>
<trkpt lat="33.0926366" lon="35.2437333">
<ele>0.000000</ele>
<time>2013-06-08T12:13:59.000Z</time>
</trkpt>
<trkpt lat="33.0926013" lon="35.2446537">
<ele>0.000000</ele>
<time>2013-06-08T12:14:01.003Z</time>
</trkpt>
<trkpt lat="33.0928477" lon="35.2453650">
<ele>0.000000</ele>
<time>2013-06-08T12:14:11.055Z</time>
</trkpt>
<trkpt lat="33.0933759" lon="35.2464530">
<ele>0.000000</ele>
<time>2013-06-08T12:14:12.091Z</time>
</trkpt>
<trkpt lat="33.0944323" lon="35.2477086">
<ele>0.000000</ele>
<time>2013-06-08T12:14:14.066Z</time>
</trkpt>
<trkpt lat="33.0942209" lon="35.2484615">
<ele>0.000000</ele>
<time>2013-06-08T12:14:16.002Z</time>
</trkpt>
<trkpt lat="33.0939391" lon="35.2491726">
<ele>0.000000</ele>
<time>2013-06-08T12:14:17.082Z</time>
</trkpt>
<trkpt lat="33.0940798" lon="35.2498839">
<ele>0.000000</ele>
<time>2013-06-08T12:14:19.097Z</time>
</trkpt>
<trkpt lat="33.0952419" lon="35.2510141">
<ele>0.000000</ele>
<time>2013-06-08T12:14:21.096Z</time>
</trkpt>
<trkpt lat="33.0952770" lon="35.2516835">
<ele>0.000000</ele>
<time>2013-06-08T12:14:23.041Z</time>
</trkpt>
<trkpt lat="33.0948191" lon="35.2521853">
<ele>0.000000</ele>
<time>2013-06-08T12:14:25.006Z</time>
</trkpt>
<trkpt lat="33.0941851" lon="35.2525197">
<ele>0.000000</ele>
<time>2013-06-08T12:14:26.066Z</time>
</trkpt>
<trkpt lat="33.0939032" lon="35.2533562">
<ele>0.000000</ele>
<time>2013-06-08T12:14:28.044Z</time>
</trkpt>
<trkpt lat="33.0940436" lon="35.2558665">
<ele>0.000000</ele>
<time>2013-06-08T12:14:31.025Z</time>
</trkpt>
<trkpt lat="33.0946069" lon="35.2571219">
<ele>0.000000</ele>
<time>2013-06-08T12:14:35.003Z</time>
</trkpt>
<trkpt lat="33.0954519" lon="35.2583775">
<ele>0.000000</ele>
<time>2013-06-08T12:14:36.066Z</time>
</trkpt>
<trkpt lat="33.0955222" lon="35.2589633">
<ele>0.000000</ele>
<time>2013-06-08T12:14:38.003Z</time>
</trkpt>
<trkpt lat="33.0955924" lon="35.2598419">
<ele>0.000000</ele>
<time>2013-06-08T12:14:41.071Z</time>
</trkpt>
<trkpt lat="33.0966128" lon="35.2639008">
<ele>0.000000</ele>
<time>2013-06-08T12:14:44.046Z</time>
</trkpt>
<trkpt lat="33.0974932" lon="35.2644871">
<ele>0.000000</ele>
<time>2013-06-08T12:14:47.066Z</time>
</trkpt>
<trkpt lat="33.0977745" lon="35.2659935">
<ele>0.000000</ele>
<time>2013-06-08T12:14:49.078Z</time>
</trkpt>
<trkpt lat="33.0985138" lon="35.2670818">
<ele>0.000000</ele>
<time>2013-06-08T12:14:51.070Z</time>
</trkpt>
<trkpt lat="33.0993570" lon="35.2740276">
<ele>0.000000</ele>
<time>2013-06-08T12:14:57.000Z</time>
</trkpt>
<trkpt lat="33.0982290" lon="35.2766207">
<ele>0.000000</ele>
<time>2013-06-08T12:15:01.061Z</time>
</trkpt>
<trkpt lat="33.0982987" lon="35.2786709">
<ele>0.000000</ele>
<time>2013-06-08T12:15:04.019Z</time>
</trkpt>
<trkpt lat="33.0964310" lon="35.2815561">
<ele>0.000000</ele>
<time>2013-06-08T12:15:05.053Z</time>
</trkpt>
<trkpt lat="33.0957970" lon="35.2817647">
<ele>0.000000</ele>
<time>2013-06-08T12:15:07.051Z</time>
</trkpt>
<trkpt lat="33.0953035" lon="35.2827266">
<ele>0.000000</ele>
<time>2013-06-08T12:15:08.094Z</time>
</trkpt>
<trkpt lat="33.0963593" lon="35.2845683">
<ele>0.000000</ele>
<time>2013-06-08T12:15:10.097Z</time>
</trkpt>
<trkpt lat="33.0966396" lon="35.2880411">
<ele>0.000000</ele>
<time>2013-06-08T12:15:12.091Z</time>
</trkpt>
<trkpt lat="33.0952999" lon="35.2908011">
<ele>0.000000</ele>
<time>2013-06-08T12:15:14.053Z</time>
</trkpt>
<trkpt lat="33.0938559" lon="35.2908415">
<ele>0.000000</ele>
<time>2013-06-08T12:15:16.030Z</time>
</trkpt>
<trkpt lat="33.0933270" lon="35.2922216">
<ele>0.000000</ele>
<time>2013-06-08T12:15:18.039Z</time>
</trkpt>
<trkpt lat="33.0936787" lon="35.2931423">
<ele>0.000000</ele>
<time>2013-06-08T12:15:20.026Z</time>
</trkpt>
<trkpt lat="33.0931502" lon="35.2937275">
<ele>0.000000</ele>
<time>2013-06-08T12:15:21.088Z</time>
</trkpt>
<trkpt lat="33.0924814" lon="35.2928901">
<ele>0.000000</ele>
<time>2013-06-08T12:15:23.071Z</time>
</trkpt>
<trkpt lat="33.0915665" lon="35.2912576">
<ele>0.000000</ele>
<time>2013-06-08T12:15:26.043Z</time>
</trkpt>
<trkpt lat="33.0902633" lon="35.2914237">
<ele>0.000000</ele>
<time>2013-06-08T12:15:32.094Z</time>
</trkpt>
<trkpt lat="33.0898410" lon="35.2907121">
<ele>0.000000</ele>
<time>2013-06-08T12:15:34.046Z</time>
</trkpt>
<trkpt lat="33.0901935" lon="35.2900849">
<ele>0.000000</ele>
<time>2013-06-08T12:15:35.067Z</time>
</trkpt>
<trkpt lat="33.0920257" lon="35.2882041">
<ele>0.000000</ele>
<time>2013-06-08T12:15:38.003Z</time>
</trkpt>
<trkpt lat="33.0920968" lon="35.2868654">
<ele>0.000000</ele>
<time>2013-06-08T12:15:40.005Z</time>
</trkpt>
<trkpt lat="33.0907944" lon="35.2851908">
<ele>0.000000</ele>
<time>2013-06-08T12:15:42.002Z</time>
</trkpt>
<trkpt lat="33.0884705" lon="35.2838500">
<ele>0.000000</ele>
<time>2013-06-08T12:15:44.088Z</time>
</trkpt>
<trkpt lat="33.0875899" lon="35.2839329">
<ele>0.000000</ele>
<time>2013-06-08T12:15:47.089Z</time>
</trkpt>
<trkpt lat="33.0865682" lon="35.2848523">
<ele>0.000000</ele>
<time>2013-06-08T12:15:49.050Z</time>
</trkpt>
<trkpt lat="33.0859338" lon="35.2858976">
<ele>0.000000</ele>
<time>2013-06-08T12:15:51.056Z</time>
</trkpt>
<trkpt lat="33.0846305" lon="35.2862310">
<ele>0.000000</ele>
<time>2013-06-08T12:15:53.058Z</time>
</trkpt>
<trkpt lat="33.0843834" lon="35.2875276">
<ele>0.000000</ele>
<time>2013-06-08T12:15:55.078Z</time>
</trkpt>
<trkpt lat="33.0824446" lon="35.2913742">
<ele>0.000000</ele>
<time>2013-06-08T12:15:57.066Z</time>
</trkpt>
<trkpt lat="33.0803286" lon="35.2971028">
<ele>0.000000</ele>
<time>2013-06-08T12:15:59.052Z</time>
</trkpt>
<trkpt lat="33.0790247" lon="35.2985655">
<ele>0.000000</ele>
<time>2013-06-08T12:16:04.006Z</time>
</trkpt>
<trkpt lat="33.0782496" lon="35.2991085">
<ele>0.000000</ele>
<time>2013-06-08T12:16:06.053Z</time>
</trkpt>
<trkpt lat="33.0767348" lon="35.2996506">
<ele>0.000000</ele>
<time>2013-06-08T12:16:08.093Z</time>
</trkpt>
<trkpt lat="33.0770175" lon="35.2980196">
<ele>0.000000</ele>
<time>2013-06-08T12:16:10.061Z</time>
</trkpt>
<trkpt lat="33.0775109" lon="35.2973509">
<ele>0.000000</ele>
<time>2013-06-08T12:16:12.023Z</time>
</trkpt>
<trkpt lat="33.0780754" lon="35.2953019">
<ele>0.000000</ele>
<time>2013-06-08T12:16:14.016Z</time>
</trkpt>
<trkpt lat="33.0777942" lon="35.2943395">
<ele>0.000000</ele>
<time>2013-06-08T12:16:16.033Z</time>
</trkpt>
<trkpt lat="33.0768437" lon="35.2934602">
<ele>0.000000</ele>
<time>2013-06-08T12:16:17.088Z</time>
</trkpt>
<trkpt lat="33.0762800" lon="35.2937942">
<ele>0.000000</ele>
<time>2013-06-08T12:16:19.052Z</time>
</trkpt>
<trkpt lat="33.0754694" lon="35.2949646">
<ele>0.000000</ele>
<time>2013-06-08T12:16:21.091Z</time>
</trkpt>
<trkpt lat="33.0748705" lon="35.2952986">
<ele>0.000000</ele>
<time>2013-06-08T12:16:24.030Z</time>
</trkpt>
<trkpt lat="33.0744127" lon="35.2951726">
<ele>0.000000</ele>
<time>2013-06-08T12:16:25.078Z</time>
</trkpt>
<trkpt lat="33.0743415" lon="35.2966365">
<ele>0.000000</ele>
<time>2013-06-08T12:16:27.096Z</time>
</trkpt>
<trkpt lat="33.0740243" lon="35.2970963">
<ele>0.000000</ele>
<time>2013-06-08T12:16:29.065Z</time>
</trkpt>
<trkpt lat="33.0739183" lon="35.2976399">
<ele>0.000000</ele>
<time>2013-06-08T12:16:31.071Z</time>
</trkpt>
<trkpt lat="33.0721217" lon="35.2985164">
<ele>0.000000</ele>
<time>2013-06-08T12:16:35.051Z</time>
</trkpt>
<trkpt lat="33.0716279" lon="35.2998124">
<ele>0.000000</ele>
<time>2013-06-08T12:16:38.003Z</time>
</trkpt>
<trkpt lat="33.0709585" lon="35.3003136">
<ele>0.000000</ele>
<time>2013-06-08T12:17:28.061Z</time>
</trkpt>
<trkpt lat="33.0675428" lon="35.2991389">
<ele>0.000000</ele>
<time>2013-06-08T12:17:31.041Z</time>
</trkpt>
<trkpt lat="33.0663094" lon="35.3005177">
<ele>0.000000</ele>
<time>2013-06-08T12:17:34.020Z</time>
</trkpt>
<trkpt lat="33.0670133" lon="35.3013550">
<ele>0.000000</ele>
<time>2013-06-08T12:17:35.093Z</time>
</trkpt>
<trkpt lat="33.0682108" lon="35.3012726">
<ele>0.000000</ele>
<time>2013-06-08T12:17:38.071Z</time>
</trkpt>
<trkpt lat="33.0681752" lon="35.3019418">
<ele>0.000000</ele>
<time>2013-06-08T12:17:40.078Z</time>
</trkpt>
<trkpt lat="33.0665535" lon="35.3048676">
<ele>0.000000</ele>
<time>2013-06-08T12:17:44.030Z</time>
</trkpt>
<trkpt lat="33.0673263" lon="35.3081726">
<ele>0.000000</ele>
<time>2013-06-08T12:17:46.024Z</time>
</trkpt>
<trkpt lat="33.0680657" lon="35.3085498">
<ele>0.000000</ele>
<time>2013-06-08T12:17:48.023Z</time>
</trkpt>
<trkpt lat="33.0682764" lon="35.3095121">
<ele>0.000000</ele>
<time>2013-06-08T12:17:50.017Z</time>
</trkpt>
<trkpt lat="33.0672544" lon="35.3105146">
<ele>0.000000</ele>
<time>2013-06-08T12:17:52.053Z</time>
</trkpt>
<trkpt lat="33.0679572" lon="35.3130667">
<ele>0.000000</ele>
<time>2013-06-08T12:17:55.025Z</time>
</trkpt>
<trkpt lat="33.0678157" lon="35.3139448">
<ele>0.000000</ele>
<time>2013-06-08T12:17:57.000Z</time>
</trkpt>
<trkpt lat="33.0672871" lon="35.3144043">
<ele>0.000000</ele>
<time>2013-06-08T12:17:58.053Z</time>
</trkpt>
<trkpt lat="33.0655978" lon="35.3125620">
<ele>0.000000</ele>
<time>2013-06-08T12:18:02.083Z</time>
</trkpt>
<trkpt lat="33.0649993" lon="35.3122685">
<ele>0.000000</ele>
<time>2013-06-08T12:18:04.065Z</time>
</trkpt>
<trkpt lat="33.0641535" lon="35.3130202">
<ele>0.000000</ele>
<time>2013-06-08T12:18:06.038Z</time>
</trkpt>
<trkpt lat="33.0639763" lon="35.3147766">
<ele>0.000000</ele>
<time>2013-06-08T12:18:08.043Z</time>
</trkpt>
<trkpt lat="33.0613319" lon="35.3189554">
<ele>0.000000</ele>
<time>2013-06-08T12:18:12.008Z</time>
</trkpt>
<trkpt lat="33.0612257" lon="35.3198335">
<ele>0.000000</ele>
<time>2013-06-08T12:18:21.055Z</time>
</trkpt>
<trkpt lat="33.0615757" lon="35.3228032">
<ele>0.000000</ele>
<time>2013-06-08T12:18:24.010Z</time>
</trkpt>
<trkpt lat="33.0605537" lon="35.3237219">
<ele>0.000000</ele>
<time>2013-06-08T12:18:26.076Z</time>
</trkpt>
<trkpt lat="33.0592512" lon="35.3229256">
<ele>0.000000</ele>
<time>2013-06-08T12:18:29.024Z</time>
</trkpt>
<trkpt lat="33.0584408" lon="35.3233427">
<ele>0.000000</ele>
<time>2013-06-08T12:18:31.017Z</time>
</trkpt>
<trkpt lat="33.0567472" lon="35.3274386">
<ele>0.000000</ele>
<time>2013-06-08T12:18:33.094Z</time>
</trkpt>
<trkpt lat="33.0568867" lon="35.3291952">
<ele>0.000000</ele>
<time>2013-06-08T12:18:37.019Z</time>
</trkpt>
<trkpt lat="33.0584688" lon="35.3327521">
<ele>0.000000</ele>
<time>2013-06-08T12:18:39.069Z</time>
</trkpt>
<trkpt lat="33.0586439" lon="35.3340069">
<ele>0.000000</ele>
<time>2013-06-08T12:18:42.006Z</time>
</trkpt>
<trkpt lat="33.0580794" lon="35.3352189">
<ele>0.000000</ele>
<time>2013-06-08T12:18:44.016Z</time>
</trkpt>
<trkpt lat="33.0571265" lon="35.3375175">
<ele>0.000000</ele>
<time>2013-06-08T12:18:47.033Z</time>
</trkpt>
<trkpt lat="33.0567728" lon="35.3393152">
<ele>0.000000</ele>
<time>2013-06-08T12:18:50.024Z</time>
</trkpt>
<trkpt lat="33.0562089" lon="35.3397743">
<ele>0.000000</ele>
<time>2013-06-08T12:18:54.010Z</time>
</trkpt>
<trkpt lat="33.0559254" lon="35.3416975">
<ele>0.000000</ele>
<time>2013-06-08T12:18:56.046Z</time>
</trkpt>
<trkpt lat="33.0552556" lon="35.3424074">
<ele>0.000000</ele>
<time>2013-06-08T12:18:58.056Z</time>
</trkpt>
<trkpt lat="33.0541990" lon="35.3424476">
<ele>0.000000</ele>
<time>2013-06-08T12:18:59.070Z</time>
</trkpt>
<trkpt lat="33.0535647" lon="35.3429066">
<ele>0.000000</ele>
<time>2013-06-08T12:19:02.015Z</time>
</trkpt>
<trkpt lat="33.0533171" lon="35.3439935">
<ele>0.000000</ele>
<time>2013-06-08T12:19:04.000Z</time>
</trkpt>
<trkpt lat="33.0536680" lon="35.3454576">
<ele>0.000000</ele>
<time>2013-06-08T12:19:13.091Z</time>
</trkpt>
<trkpt lat="33.0533152" lon="35.3461261">
<ele>0.000000</ele>
<time>2013-06-08T12:19:15.088Z</time>
</trkpt>
<trkpt lat="33.0523992" lon="35.3464592">
<ele>0.000000</ele>
<time>2013-06-08T12:19:19.005Z</time>
</trkpt>
<trkpt lat="33.0520814" lon="35.3473786">
<ele>0.000000</ele>
<time>2013-06-08T12:19:20.091Z</time>
</trkpt>
<trkpt lat="33.0522213" lon="35.3483825">
<ele>0.000000</ele>
<time>2013-06-08T12:19:23.069Z</time>
</trkpt>
<trkpt lat="33.0529249" lon="35.3493036">
<ele>0.000000</ele>
<time>2013-06-08T12:19:25.032Z</time>
</trkpt>
<trkpt lat="33.0526427" lon="35.3497213">
<ele>0.000000</ele>
<time>2013-06-08T12:19:26.070Z</time>
</trkpt>
<trkpt lat="33.0521147" lon="35.3494695">
<ele>0.000000</ele>
<time>2013-06-08T12:19:27.091Z</time>
</trkpt>
<trkpt lat="33.0513400" lon="35.3492592">
<ele>0.000000</ele>
<time>2013-06-08T12:19:29.000Z</time>
</trkpt>
<trkpt lat="33.0506355" lon="35.3494253">
<ele>0.000000</ele>
<time>2013-06-08T12:19:30.039Z</time>
</trkpt>
<trkpt lat="33.0499305" lon="35.3500096">
<ele>0.000000</ele>
<time>2013-06-08T12:19:32.050Z</time>
</trkpt>
<trkpt lat="33.0492968" lon="35.3497576">
<ele>0.000000</ele>
<time>2013-06-08T12:19:34.032Z</time>
</trkpt>
<trkpt lat="33.0491217" lon="35.3487120">
<ele>0.000000</ele>
<time>2013-06-08T12:19:36.032Z</time>
</trkpt>
<trkpt lat="33.0493343" lon="35.3473324">
<ele>0.000000</ele>
<time>2013-06-08T12:19:37.088Z</time>
</trkpt>
<trkpt lat="33.0502520" lon="35.3451595">
<ele>0.000000</ele>
<time>2013-06-08T12:19:39.046Z</time>
</trkpt>
<trkpt lat="33.0501474" lon="35.3440303">
<ele>0.000000</ele>
<time>2013-06-08T12:19:40.058Z</time>
</trkpt>
<trkpt lat="33.0495143" lon="35.3429839">
<ele>0.000000</ele>
<time>2013-06-08T12:19:42.035Z</time>
</trkpt>
<trkpt lat="33.0488103" lon="35.3425647">
<ele>0.000000</ele>
<time>2013-06-08T12:19:44.015Z</time>
</trkpt>
<trkpt lat="33.0471909" lon="35.3418095">
<ele>0.000000</ele>
<time>2013-06-08T12:19:49.015Z</time>
</trkpt>
<trkpt lat="33.0462395" lon="35.3423098">
<ele>0.000000</ele>
<time>2013-06-08T12:19:50.089Z</time>
</trkpt>
<trkpt lat="33.0458512" lon="35.3432709">
<ele>0.000000</ele>
<time>2013-06-08T12:19:52.028Z</time>
</trkpt>
<trkpt lat="33.0446882" lon="35.3441471">
<ele>0.000000</ele>
<time>2013-06-08T12:19:53.050Z</time>
</trkpt>
<trkpt lat="33.0441240" lon="35.3449407">
<ele>0.000000</ele>
<time>2013-06-08T12:19:55.005Z</time>
</trkpt>
<trkpt lat="33.0439826" lon="35.3454422">
<ele>0.000000</ele>
<time>2013-06-08T12:19:56.070Z</time>
</trkpt>
<trkpt lat="33.0433837" lon="35.3456921">
<ele>0.000000</ele>
<time>2013-06-08T12:19:59.008Z</time>
</trkpt>
<trkpt lat="33.0431378" lon="35.3449809">
<ele>0.000000</ele>
<time>2013-06-08T12:20:00.061Z</time>
</trkpt>
<trkpt lat="33.0437033" lon="35.3427240">
<ele>0.000000</ele>
<time>2013-06-08T12:20:01.088Z</time>
</trkpt>
<trkpt lat="33.0435637" lon="35.3413021">
<ele>0.000000</ele>
<time>2013-06-08T12:20:03.002Z</time>
</trkpt>
<trkpt lat="33.0430361" lon="35.3404651">
<ele>0.000000</ele>
<time>2013-06-08T12:20:04.080Z</time>
</trkpt>
<trkpt lat="33.0431422" lon="35.3399635">
<ele>0.000000</ele>
<time>2013-06-08T12:20:07.019Z</time>
</trkpt>
<trkpt lat="33.0435655" lon="35.3392533">
<ele>0.000000</ele>
<time>2013-06-08T12:20:08.043Z</time>
</trkpt>
<trkpt lat="33.0434251" lon="35.3386259">
<ele>0.000000</ele>
<time>2013-06-08T12:20:09.033Z</time>
</trkpt>
<trkpt lat="33.0425803" lon="35.3381229">
<ele>0.000000</ele>
<time>2013-06-08T12:20:10.061Z</time>
</trkpt>
<trkpt lat="33.0424051" lon="35.3370355">
<ele>0.000000</ele>
<time>2013-06-08T12:20:11.082Z</time>
</trkpt>
<trkpt lat="33.0428635" lon="35.3363672">
<ele>0.000000</ele>
<time>2013-06-08T12:20:13.011Z</time>
</trkpt>
<trkpt lat="33.0436746" lon="35.3351558">
<ele>0.000000</ele>
<time>2013-06-08T12:20:14.074Z</time>
</trkpt>
<trkpt lat="33.0435346" lon="35.3340267">
<ele>0.000000</ele>
<time>2013-06-08T12:20:16.033Z</time>
</trkpt>
<trkpt lat="33.0427607" lon="35.3328966">
<ele>0.000000</ele>
<time>2013-06-08T12:20:17.050Z</time>
</trkpt>
<trkpt lat="33.0427629" lon="35.3302207">
<ele>0.000000</ele>
<time>2013-06-08T12:20:22.096Z</time>
</trkpt>
<trkpt lat="33.0424466" lon="35.3293004">
<ele>0.000000</ele>
<time>2013-06-08T12:20:24.046Z</time>
</trkpt>
<trkpt lat="33.0412144" lon="35.3286297">
<ele>0.000000</ele>
<time>2013-06-08T12:20:25.097Z</time>
</trkpt>
<trkpt lat="33.0401578" lon="35.3286700">
<ele>0.000000</ele>
<time>2013-06-08T12:20:27.051Z</time>
</trkpt>
<trkpt lat="33.0395594" lon="35.3282092">
<ele>0.000000</ele>
<time>2013-06-08T12:20:29.052Z</time>
</trkpt>
<trkpt lat="33.0386449" lon="35.3266610">
<ele>0.000000</ele>
<time>2013-06-08T12:20:31.019Z</time>
</trkpt>
<trkpt lat="33.0376241" lon="35.3258652">
<ele>0.000000</ele>
<time>2013-06-08T12:20:33.050Z</time>
</trkpt>
<trkpt lat="33.0368497" lon="35.3252788">
<ele>0.000000</ele>
<time>2013-06-08T12:20:37.070Z</time>
</trkpt>
<trkpt lat="33.0360415" lon="35.3228528">
<ele>0.000000</ele>
<time>2013-06-08T12:20:42.065Z</time>
</trkpt>
<trkpt lat="33.0348815" lon="35.3196738">
<ele>0.000000</ele>
<time>2013-06-08T12:20:45.025Z</time>
</trkpt>
<trkpt lat="33.0339320" lon="35.3176240">
<ele>0.000000</ele>
<time>2013-06-08T12:20:47.002Z</time>
</trkpt>
<trkpt lat="33.0323830" lon="35.3166186">
<ele>0.000000</ele>
<time>2013-06-08T12:20:48.096Z</time>
</trkpt>
<trkpt lat="33.0301985" lon="35.3179537">
<ele>0.000000</ele>
<time>2013-06-08T12:20:51.065Z</time>
</trkpt>
<trkpt lat="33.0298102" lon="35.3191656">
<ele>0.000000</ele>
<time>2013-06-08T12:20:53.080Z</time>
</trkpt>
<trkpt lat="33.0300888" lon="35.3235556">
<ele>0.000000</ele>
<time>2013-06-08T12:21:52.074Z</time>
</trkpt>
<trkpt lat="33.0294536" lon="35.3252687">
<ele>0.000000</ele>
<time>2013-06-08T12:21:54.038Z</time>
</trkpt>
<trkpt lat="33.0283609" lon="35.3265214">
<ele>0.000000</ele>
<time>2013-06-08T12:21:56.067Z</time>
</trkpt>
<trkpt lat="33.0269164" lon="35.3271047">
<ele>0.000000</ele>
<time>2013-06-08T12:22:01.032Z</time>
</trkpt>
<trkpt lat="33.0257179" lon="35.3284826">
<ele>0.000000</ele>
<time>2013-06-08T12:22:02.071Z</time>
</trkpt>
<trkpt lat="33.0260340" lon="35.3296117">
<ele>0.000000</ele>
<time>2013-06-08T12:22:04.080Z</time>
</trkpt>
<trkpt lat="33.0254352" lon="35.3296109">
<ele>0.000000</ele>
<time>2013-06-08T12:22:07.071Z</time>
</trkpt>
<trkpt lat="33.0246609" lon="35.3290245">
<ele>0.000000</ele>
<time>2013-06-08T12:22:09.030Z</time>
</trkpt>
<trkpt lat="33.0227610" lon="35.3263883">
<ele>0.000000</ele>
<time>2013-06-08T12:22:13.055Z</time>
</trkpt>
<trkpt lat="33.0230440" lon="35.3248002">
<ele>0.000000</ele>
<time>2013-06-08T12:22:16.000Z</time>
</trkpt>
<trkpt lat="33.0225517" lon="35.3236709">
<ele>0.000000</ele>
<time>2013-06-08T12:22:19.043Z</time>
</trkpt>
<trkpt lat="33.0215661" lon="35.3229589">
<ele>0.000000</ele>
<time>2013-06-08T12:22:22.008Z</time>
</trkpt>
<trkpt lat="33.0198763" lon="35.3219116">
<ele>0.000000</ele>
<time>2013-06-08T12:22:24.023Z</time>
</trkpt>
<trkpt lat="33.0192070" lon="35.3220361">
<ele>0.000000</ele>
<time>2013-06-08T12:22:27.006Z</time>
</trkpt>
<trkpt lat="33.0179742" lon="35.3222435">
<ele>0.000000</ele>
<time>2013-06-08T12:22:28.055Z</time>
</trkpt>
<trkpt lat="33.0170941" lon="35.3216571">
<ele>0.000000</ele>
<time>2013-06-08T12:22:30.021Z</time>
</trkpt>
<trkpt lat="33.0166369" lon="35.3206951">
<ele>0.000000</ele>
<time>2013-06-08T12:22:31.033Z</time>
</trkpt>
<trkpt lat="33.0167081" lon="35.3196084">
<ele>0.000000</ele>
<time>2013-06-08T12:22:33.088Z</time>
</trkpt>
<trkpt lat="33.0172024" lon="35.3178953">
<ele>0.000000</ele>
<time>2013-06-08T12:22:35.006Z</time>
</trkpt>
<trkpt lat="33.0165336" lon="35.3174346">
<ele>0.000000</ele>
<time>2013-06-08T12:31:47.023Z</time>
</trkpt>
<trkpt lat="33.0153711" lon="35.3177257">
<ele>0.000000</ele>
<time>2013-06-08T12:31:48.098Z</time>
</trkpt>
<trkpt lat="33.0137169" lon="35.3160099">
<ele>0.000000</ele>
<time>2013-06-08T12:31:51.050Z</time>
</trkpt>
<trkpt lat="33.0131894" lon="35.3149225">
<ele>0.000000</ele>
<time>2013-06-08T12:31:53.046Z</time>
</trkpt>
<trkpt lat="33.0125560" lon="35.3139604">
<ele>0.000000</ele>
<time>2013-06-08T12:31:56.047Z</time>
</trkpt>
<trkpt lat="33.0117468" lon="35.3127472">
<ele>0.000000</ele>
<time>2013-06-08T12:31:57.073Z</time>
</trkpt>
<trkpt lat="33.0106198" lon="35.3125787">
<ele>0.000000</ele>
<time>2013-06-08T12:32:02.078Z</time>
</trkpt>
<trkpt lat="33.0088940" lon="35.3127438">
<ele>0.000000</ele>
<time>2013-06-08T12:32:05.083Z</time>
</trkpt>
<trkpt lat="33.0088941" lon="35.3124930">
<ele>0.000000</ele>
<time>2013-06-08T12:32:07.066Z</time>
</trkpt>
<trkpt lat="33.0102343" lon="35.3096106">
<ele>0.000000</ele>
<time>2013-06-08T12:32:09.073Z</time>
</trkpt>
<trkpt lat="33.0102347" lon="35.3089001">
<ele>0.000000</ele>
<time>2013-06-08T12:32:10.083Z</time>
</trkpt>
<trkpt lat="33.0080883" lon="35.3056375">
<ele>0.000000</ele>
<time>2013-06-08T12:32:14.000Z</time>
</trkpt>
<trkpt lat="33.0076306" lon="35.3054280">
<ele>0.000000</ele>
<time>2013-06-08T12:32:16.080Z</time>
</trkpt>
<trkpt lat="33.0066797" lon="35.3053015">
<ele>0.000000</ele>
<time>2013-06-08T12:32:18.021Z</time>
</trkpt>
<trkpt lat="33.0064687" lon="35.3047162">
<ele>0.000000</ele>
<time>2013-06-08T12:32:19.093Z</time>
</trkpt>
<trkpt lat="33.0076322" lon="35.3025859">
<ele>0.000000</ele>
<time>2013-06-08T12:32:22.020Z</time>
</trkpt>
<trkpt lat="33.0075636" lon="35.2992004">
<ele>0.000000</ele>
<time>2013-06-08T12:32:25.000Z</time>
</trkpt>
<trkpt lat="33.0067550" lon="35.2965664">
<ele>0.000000</ele>
<time>2013-06-08T12:32:29.069Z</time>
</trkpt>
<trkpt lat="33.0058397" lon="35.2956878">
<ele>0.000000</ele>
<time>2013-06-08T12:32:31.002Z</time>
</trkpt>
<trkpt lat="33.0051002" lon="35.2953527">
<ele>0.000000</ele>
<time>2013-06-08T12:32:33.003Z</time>
</trkpt>
<trkpt lat="33.0049241" lon="35.2953525">
<ele>0.000000</ele>
<time>2013-06-08T12:32:35.055Z</time>
</trkpt>
<trkpt lat="33.0046068" lon="35.2961045">
<ele>0.000000</ele>
<time>2013-06-08T12:32:37.082Z</time>
</trkpt>
<trkpt lat="33.0041134" lon="35.2966473">
<ele>0.000000</ele>
<time>2013-06-08T12:32:39.052Z</time>
</trkpt>
<trkpt lat="33.0026338" lon="35.2973563">
<ele>0.000000</ele>
<time>2013-06-08T12:32:41.035Z</time>
</trkpt>
<trkpt lat="32.9996035" lon="35.2999442">
<ele>0.000000</ele>
<time>2013-06-08T12:32:45.021Z</time>
</trkpt>
<trkpt lat="32.9983348" lon="35.3013637">
<ele>0.000000</ele>
<time>2013-06-08T12:32:47.098Z</time>
</trkpt>
<trkpt lat="32.9978412" lon="35.3023662">
<ele>0.000000</ele>
<time>2013-06-08T12:32:54.016Z</time>
</trkpt>
<trkpt lat="32.9966787" lon="35.3027410">
<ele>0.000000</ele>
<time>2013-06-08T12:32:56.047Z</time>
</trkpt>
<trkpt lat="32.9959740" lon="35.3032417">
<ele>0.000000</ele>
<time>2013-06-08T12:32:58.010Z</time>
</trkpt>
<trkpt lat="32.9954803" lon="35.3043277">
<ele>0.000000</ele>
<time>2013-06-08T12:33:00.094Z</time>
</trkpt>
<trkpt lat="32.9955149" lon="35.3054978">
<ele>0.000000</ele>
<time>2013-06-08T12:33:02.075Z</time>
</trkpt>
<trkpt lat="32.9942801" lon="35.3089649">
<ele>0.000000</ele>
<time>2013-06-08T12:33:07.076Z</time>
</trkpt>
<trkpt lat="32.9941733" lon="35.3107200">
<ele>0.000000</ele>
<time>2013-06-08T12:33:10.024Z</time>
</trkpt>
<trkpt lat="32.9927975" lon="35.3141868">
<ele>0.000000</ele>
<time>2013-06-08T12:33:13.070Z</time>
</trkpt>
<trkpt lat="32.9927968" lon="35.3152315">
<ele>0.000000</ele>
<time>2013-06-08T12:33:15.021Z</time>
</trkpt>
<trkpt lat="32.9912099" lon="35.3181964">
<ele>0.000000</ele>
<time>2013-06-08T12:33:18.016Z</time>
</trkpt>
<trkpt lat="32.9900815" lon="35.3202426">
<ele>0.000000</ele>
<time>2013-06-08T12:33:24.044Z</time>
</trkpt>
<trkpt lat="32.9889545" lon="35.3201157">
<ele>0.000000</ele>
<time>2013-06-08T12:33:28.046Z</time>
</trkpt>
<trkpt lat="32.9883556" lon="35.3203239">
<ele>0.000000</ele>
<time>2013-06-08T12:33:30.008Z</time>
</trkpt>
<trkpt lat="32.9878636" lon="35.3188190">
<ele>0.000000</ele>
<time>2013-06-08T12:33:32.069Z</time>
</trkpt>
<trkpt lat="32.9888503" lon="35.3181099">
<ele>0.000000</ele>
<time>2013-06-08T12:33:34.043Z</time>
</trkpt>
<trkpt lat="32.9887804" lon="35.3172322">
<ele>0.000000</ele>
<time>2013-06-08T12:33:35.066Z</time>
</trkpt>
<trkpt lat="32.9882172" lon="35.3167301">
<ele>0.000000</ele>
<time>2013-06-08T12:33:38.002Z</time>
</trkpt>
<trkpt lat="32.9876187" lon="35.3164368">
<ele>0.000000</ele>
<time>2013-06-08T12:33:40.091Z</time>
</trkpt>
<trkpt lat="32.9873020" lon="35.3159768">
<ele>0.000000</ele>
<time>2013-06-08T12:33:42.061Z</time>
</trkpt>
<trkpt lat="32.9871968" lon="35.3153499">
<ele>0.000000</ele>
<time>2013-06-08T12:33:44.026Z</time>
</trkpt>
<trkpt lat="32.9860008" lon="35.3131338">
<ele>0.000000</ele>
<time>2013-06-08T12:33:46.051Z</time>
</trkpt>
<trkpt lat="32.9858604" lon="35.3123815">
<ele>0.000000</ele>
<time>2013-06-08T12:33:47.085Z</time>
</trkpt>
<trkpt lat="32.9861777" lon="35.3118804">
<ele>0.000000</ele>
<time>2013-06-08T12:33:49.094Z</time>
</trkpt>
<trkpt lat="32.9884332" lon="35.3095431">
<ele>0.000000</ele>
<time>2013-06-08T12:33:51.091Z</time>
</trkpt>
<trkpt lat="32.9887154" lon="35.3089166">
<ele>0.000000</ele>
<time>2013-06-08T12:33:53.097Z</time>
</trkpt>
<trkpt lat="32.9887866" lon="35.3075795">
<ele>0.000000</ele>
<time>2013-06-08T12:33:56.038Z</time>
</trkpt>
<trkpt lat="32.9888573" lon="35.3072453">
<ele>0.000000</ele>
<time>2013-06-08T12:34:16.065Z</time>
</trkpt>
<trkpt lat="32.9894218" lon="35.3054909">
<ele>0.000000</ele>
<time>2013-06-08T12:34:19.023Z</time>
</trkpt>
<trkpt lat="32.9890701" lon="35.3047384">
<ele>0.000000</ele>
<time>2013-06-08T12:34:21.003Z</time>
</trkpt>
<trkpt lat="32.9878373" lon="35.3049459">
<ele>0.000000</ele>
<time>2013-06-08T12:34:22.078Z</time>
</trkpt>
<trkpt lat="32.9858648" lon="35.3051108">
<ele>0.000000</ele>
<time>2013-06-08T12:34:25.089Z</time>
</trkpt>
<trkpt lat="32.9853011" lon="35.3054862">
<ele>0.000000</ele>
<time>2013-06-08T12:34:27.061Z</time>
</trkpt>
<trkpt lat="32.9846312" lon="35.3066555">
<ele>0.000000</ele>
<time>2013-06-08T12:34:30.011Z</time>
</trkpt>
<trkpt lat="32.9827647" lon="35.3064862">
<ele>0.000000</ele>
<time>2013-06-08T12:34:32.085Z</time>
</trkpt>
<trkpt lat="32.9799825" lon="35.3061070">
<ele>0.000000</ele>
<time>2013-06-08T12:34:36.046Z</time>
</trkpt>
<trkpt lat="32.9796305" lon="35.3057723">
<ele>0.000000</ele>
<time>2013-06-08T12:34:41.082Z</time>
</trkpt>
<trkpt lat="32.9795960" lon="35.3044770">
<ele>0.000000</ele>
<time>2013-06-08T12:34:43.052Z</time>
</trkpt>
<trkpt lat="32.9789274" lon="35.3035153">
<ele>0.000000</ele>
<time>2013-06-08T12:34:46.033Z</time>
</trkpt>
<trkpt lat="32.9796680" lon="35.3018866">
<ele>0.000000</ele>
<time>2013-06-08T12:34:48.032Z</time>
</trkpt>
<trkpt lat="32.9807253" lon="35.3005089">
<ele>0.000000</ele>
<time>2013-06-08T12:34:50.026Z</time>
</trkpt>
<trkpt lat="32.9828748" lon="35.2986309">
<ele>0.000000</ele>
<time>2013-06-08T12:34:52.065Z</time>
</trkpt>
<trkpt lat="32.9828398" lon="35.2980459">
<ele>0.000000</ele>
<time>2013-06-08T12:34:54.033Z</time>
</trkpt>
<trkpt lat="32.9834384" lon="35.2983808">
<ele>0.000000</ele>
<time>2013-06-08T12:34:55.053Z</time>
</trkpt>
<trkpt lat="32.9856936" lon="35.2961686">
<ele>0.000000</ele>
<time>2013-06-08T12:34:58.002Z</time>
</trkpt>
<trkpt lat="32.9863990" lon="35.2942890">
<ele>0.000000</ele>
<time>2013-06-08T12:34:59.051Z</time>
</trkpt>
<trkpt lat="32.9865756" lon="35.2932863">
<ele>0.000000</ele>
<time>2013-06-08T12:35:01.028Z</time>
</trkpt>
<trkpt lat="32.9874219" lon="35.2912396">
<ele>0.000000</ele>
<time>2013-06-08T12:35:05.002Z</time>
</trkpt>
<trkpt lat="32.9882324" lon="35.2901122">
<ele>0.000000</ele>
<time>2013-06-08T12:35:06.078Z</time>
</trkpt>
<trkpt lat="32.9891843" lon="35.2880238">
<ele>0.000000</ele>
<time>2013-06-08T12:35:17.065Z</time>
</trkpt>
<trkpt lat="32.9891144" lon="35.2868119">
<ele>0.000000</ele>
<time>2013-06-08T12:35:19.085Z</time>
</trkpt>
<trkpt lat="32.9900663" lon="35.2846816">
<ele>0.000000</ele>
<time>2013-06-08T12:35:21.093Z</time>
</trkpt>
<trkpt lat="32.9923555" lon="35.2848090">
<ele>0.000000</ele>
<time>2013-06-08T12:35:23.043Z</time>
</trkpt>
<trkpt lat="32.9933772" lon="35.2842249">
<ele>0.000000</ele>
<time>2013-06-08T12:35:24.053Z</time>
</trkpt>
<trkpt lat="32.9923210" lon="35.2832210">
<ele>0.000000</ele>
<time>2013-06-08T12:35:26.073Z</time>
</trkpt>
<trkpt lat="32.9923221" lon="35.2803794">
<ele>0.000000</ele>
<time>2013-06-08T12:35:28.008Z</time>
</trkpt>
<trkpt lat="32.9920055" lon="35.2793762">
<ele>0.000000</ele>
<time>2013-06-08T12:35:30.002Z</time>
</trkpt>
<trkpt lat="32.9923932" lon="35.2787498">
<ele>0.000000</ele>
<time>2013-06-08T12:35:32.055Z</time>
</trkpt>
<trkpt lat="32.9961976" lon="35.2769977">
<ele>0.000000</ele>
<time>2013-06-08T12:35:35.019Z</time>
</trkpt>
<trkpt lat="32.9967968" lon="35.2757027">
<ele>0.000000</ele>
<time>2013-06-08T12:35:37.019Z</time>
</trkpt>
<trkpt lat="32.9981712" lon="35.2731128">
<ele>0.000000</ele>
<time>2013-06-08T12:35:38.043Z</time>
</trkpt>
<trkpt lat="32.9997210" lon="35.2728632">
<ele>0.000000</ele>
<time>2013-06-08T12:36:24.033Z</time>
</trkpt>
<trkpt lat="33.0044410" lon="35.2711951">
<ele>0.000000</ele>
<time>2013-06-08T12:36:26.074Z</time>
</trkpt>
<trkpt lat="33.0072587" lon="35.2709046">
<ele>0.000000</ele>
<time>2013-06-08T12:36:28.080Z</time>
</trkpt>
<trkpt lat="33.0077871" lon="35.2705706">
<ele>0.000000</ele>
<time>2013-06-08T12:36:30.085Z</time>
</trkpt>
<trkpt lat="33.0086327" lon="35.2691920">
<ele>0.000000</ele>
<time>2013-06-08T12:36:32.050Z</time>
</trkpt>
<trkpt lat="33.0091612" lon="35.2686490">
<ele>0.000000</ele>
<time>2013-06-08T12:36:33.076Z</time>
</trkpt>
<trkpt lat="33.0095840" lon="35.2681896">
<ele>0.000000</ele>
<time>2013-06-08T12:36:35.002Z</time>
</trkpt>
<trkpt lat="33.0102532" lon="35.2680647">
<ele>0.000000</ele>
<time>2013-06-08T12:36:36.055Z</time>
</trkpt>
<trkpt lat="33.0110631" lon="35.2684414">
<ele>0.000000</ele>
<time>2013-06-08T12:36:38.017Z</time>
</trkpt>
<trkpt lat="33.0118029" lon="35.2680240">
<ele>0.000000</ele>
<time>2013-06-08T12:36:39.043Z</time>
</trkpt>
<trkpt lat="33.0135994" lon="35.2668967">
<ele>0.000000</ele>
<time>2013-06-08T12:36:41.082Z</time>
</trkpt>
<trkpt lat="33.0139167" lon="35.2659356">
<ele>0.000000</ele>
<time>2013-06-08T12:36:45.096Z</time>
</trkpt>
<trkpt lat="33.0153959" lon="35.2657694">
<ele>0.000000</ele>
<time>2013-06-08T12:36:47.073Z</time>
</trkpt>
<trkpt lat="33.0152203" lon="35.2641391">
<ele>0.000000</ele>
<time>2013-06-08T12:36:49.097Z</time>
</trkpt>
<trkpt lat="33.0111701" lon="35.2637184">
<ele>0.000000</ele>
<time>2013-06-08T12:36:53.071Z</time>
</trkpt>
<trkpt lat="33.0103601" lon="35.2634253">
<ele>0.000000</ele>
<time>2013-06-08T12:36:56.001Z</time>
</trkpt>
<trkpt lat="33.0089163" lon="35.2625466">
<ele>0.000000</ele>
<time>2013-06-08T12:36:58.024Z</time>
</trkpt>
<trkpt lat="33.0083178" lon="35.2616267">
<ele>0.000000</ele>
<time>2013-06-08T12:36:59.047Z</time>
</trkpt>
<trkpt lat="33.0070149" lon="35.2604974">
<ele>0.000000</ele>
<time>2013-06-08T12:37:00.061Z</time>
</trkpt>
<trkpt lat="33.0067687" lon="35.2590344">
<ele>0.000000</ele>
<time>2013-06-08T12:37:02.026Z</time>
</trkpt>
<trkpt lat="33.0068394" lon="35.2579478">
<ele>0.000000</ele>
<time>2013-06-08T12:37:03.089Z</time>
</trkpt>
<trkpt lat="33.0075093" lon="35.2540612">
<ele>0.000000</ele>
<time>2013-06-08T12:37:07.096Z</time>
</trkpt>
<trkpt lat="33.0085318" lon="35.2461623">
<ele>0.000000</ele>
<time>2013-06-08T12:37:11.010Z</time>
</trkpt>
<trkpt lat="33.0083911" lon="35.2444904">
<ele>0.000000</ele>
<time>2013-06-08T12:37:14.019Z</time>
</trkpt>
<trkpt lat="33.0085323" lon="35.2409379">
<ele>0.000000</ele>
<time>2013-06-08T12:37:15.094Z</time>
</trkpt>
<trkpt lat="33.0082859" lon="35.2390987">
<ele>0.000000</ele>
<time>2013-06-08T12:37:20.074Z</time>
</trkpt>
<trkpt lat="33.0077224" lon="35.2377193">
<ele>0.000000</ele>
<time>2013-06-08T12:37:22.039Z</time>
</trkpt>
<trkpt lat="33.0076520" lon="35.2366326">
<ele>0.000000</ele>
<time>2013-06-08T12:37:24.030Z</time>
</trkpt>
<trkpt lat="33.0077225" lon="35.2323276">
<ele>0.000000</ele>
<time>2013-06-08T12:37:26.028Z</time>
</trkpt>
<trkpt lat="33.0071590" lon="35.2308646">
<ele>0.000000</ele>
<time>2013-06-08T12:37:29.058Z</time>
</trkpt>
<trkpt lat="33.0062432" lon="35.2277297">
<ele>0.000000</ele>
<time>2013-06-08T12:37:30.093Z</time>
</trkpt>
<trkpt lat="33.0062080" lon="35.2265595">
<ele>0.000000</ele>
<time>2013-06-08T12:37:32.044Z</time>
</trkpt>
<trkpt lat="33.0078632" lon="35.2252642">
<ele>0.000000</ele>
<time>2013-06-08T12:37:38.026Z</time>
</trkpt>
<trkpt lat="33.0083563" lon="35.2253479">
<ele>0.000000</ele>
<time>2013-06-08T12:37:41.006Z</time>
</trkpt>
<trkpt lat="33.0087433" lon="35.2197055">
<ele>0.000000</ele>
<time>2013-06-08T12:37:43.033Z</time>
</trkpt>
<trkpt lat="33.0086019" lon="35.2156095">
<ele>0.000000</ele>
<time>2013-06-08T12:37:45.094Z</time>
</trkpt>
<trkpt lat="33.0081789" lon="35.2126419">
<ele>0.000000</ele>
<time>2013-06-08T12:37:48.021Z</time>
</trkpt>
<trkpt lat="33.0073683" lon="35.2097580">
<ele>0.000000</ele>
<time>2013-06-08T12:37:50.066Z</time>
</trkpt>
<trkpt lat="33.0065229" lon="35.2087967">
<ele>0.000000</ele>
<time>2013-06-08T12:37:52.051Z</time>
</trkpt>
<trkpt lat="33.0061349" lon="35.2059546">
<ele>0.000000</ele>
<time>2013-06-08T12:37:54.038Z</time>
</trkpt>
<trkpt lat="33.0065567" lon="35.2024020">
<ele>0.000000</ele>
<time>2013-06-08T12:37:57.078Z</time>
</trkpt>
<trkpt lat="33.0091271" lon="35.1995598">
<ele>0.000000</ele>
<time>2013-06-08T12:37:59.021Z</time>
</trkpt>
<trkpt lat="33.0095843" lon="35.1971356">
<ele>0.000000</ele>
<time>2013-06-08T12:38:00.069Z</time>
</trkpt>
<trkpt lat="33.0084211" lon="35.1940010">
<ele>0.000000</ele>
<time>2013-06-08T12:38:02.010Z</time>
</trkpt>
<trkpt lat="33.0083148" lon="35.1918276">
<ele>0.000000</ele>
<time>2013-06-08T12:38:03.046Z</time>
</trkpt>
<trkpt lat="33.0086662" lon="35.1894870">
<ele>0.000000</ele>
<time>2013-06-08T12:38:05.025Z</time>
</trkpt>
<trkpt lat="33.0091583" lon="35.1867701">
<ele>0.000000</ele>
<time>2013-06-08T12:38:08.075Z</time>
</trkpt>
<trkpt lat="33.0103902" lon="35.1845965">
<ele>0.000000</ele>
<time>2013-06-08T12:38:10.056Z</time>
</trkpt>
<trkpt lat="33.0114108" lon="35.1825064">
<ele>0.000000</ele>
<time>2013-06-08T12:38:12.030Z</time>
</trkpt>
<trkpt lat="33.0117978" lon="35.1815449">
<ele>0.000000</ele>
<time>2013-06-08T12:38:13.089Z</time>
</trkpt>
<trkpt lat="33.0117973" lon="35.1804164">
<ele>0.000000</ele>
<time>2013-06-08T12:38:16.003Z</time>
</trkpt>
<trkpt lat="33.0132389" lon="35.1748568">
<ele>0.000000</ele>
<time>2013-06-08T12:38:20.038Z</time>
</trkpt>
<trkpt lat="33.0138021" lon="35.1741043">
<ele>0.000000</ele>
<time>2013-06-08T12:38:21.069Z</time>
</trkpt>
<trkpt lat="33.0141888" lon="35.1725576">
<ele>0.000000</ele>
<time>2013-06-08T12:38:23.003Z</time>
</trkpt>
<trkpt lat="33.0147167" lon="35.1717214">
<ele>0.000000</ele>
<time>2013-06-08T12:38:24.044Z</time>
</trkpt>
<trkpt lat="33.0155616" lon="35.1710105">
<ele>0.000000</ele>
<time>2013-06-08T12:38:26.026Z</time>
</trkpt>
<trkpt lat="33.0160524" lon="35.1665796">
<ele>0.000000</ele>
<time>2013-06-08T12:38:30.021Z</time>
</trkpt>
<trkpt lat="33.0154153" lon="35.1607280">
<ele>0.000000</ele>
<time>2013-06-08T12:38:31.080Z</time>
</trkpt>
<trkpt lat="33.0156230" lon="35.1547087">
<ele>0.000000</ele>
<time>2013-06-08T12:38:33.025Z</time>
</trkpt>
<trkpt lat="33.0157624" lon="35.1522843">
<ele>0.000000</ele>
<time>2013-06-08T12:38:35.000Z</time>
</trkpt>
<trkpt lat="33.0163927" lon="35.1468082">
<ele>0.000000</ele>
<time>2013-06-08T12:38:36.089Z</time>
</trkpt>
<trkpt lat="33.0165322" lon="35.1448017">
<ele>0.000000</ele>
<time>2013-06-08T12:38:38.091Z</time>
</trkpt>
<trkpt lat="33.0163548" lon="35.1430044">
<ele>0.000000</ele>
<time>2013-06-08T12:38:42.011Z</time>
</trkpt>
<trkpt lat="33.0189604" lon="35.1419994">
<ele>0.000000</ele>
<time>2013-06-08T12:38:44.073Z</time>
</trkpt>
<trkpt lat="33.0246668" lon="35.1431658">
<ele>0.000000</ele>
<time>2013-06-08T12:38:46.070Z</time>
</trkpt>
<trkpt lat="33.0282948" lon="35.1437068">
<ele>0.000000</ele>
<time>2013-06-08T12:38:48.050Z</time>
</trkpt>
<trkpt lat="33.0321694" lon="35.1442894">
<ele>0.000000</ele>
<time>2013-06-08T12:38:52.038Z</time>
</trkpt>
<trkpt lat="33.0387221" lon="35.1468353">
<ele>0.000000</ele>
<time>2013-06-08T12:38:55.015Z</time>
</trkpt>
<trkpt lat="33.0410119" lon="35.1476701">
<ele>0.000000</ele>
<time>2013-06-08T12:38:56.074Z</time>
</trkpt>
<trkpt lat="33.0419278" lon="35.1479203">
<ele>0.000000</ele>
<time>2013-06-08T12:39:01.050Z</time>
</trkpt>
<trkpt lat="33.0469640" lon="35.1476662">
<ele>0.000000</ele>
<time>2013-06-08T12:39:03.083Z</time>
</trkpt>
<trkpt lat="33.0486554" lon="35.1488359">
<ele>0.000000</ele>
<time>2013-06-08T12:39:06.032Z</time>
</trkpt>
<trkpt lat="33.0504184" lon="35.1520128">
<ele>0.000000</ele>
<time>2013-06-08T12:39:08.061Z</time>
</trkpt>
<trkpt lat="33.0527437" lon="35.1532659">
<ele>0.000000</ele>
<time>2013-06-08T12:39:11.032Z</time>
</trkpt>
<trkpt lat="33.0541168" lon="35.1525124">
<ele>0.000000</ele>
<time>2013-06-08T12:39:13.058Z</time>
</trkpt>
<trkpt lat="33.0554896" lon="35.1513407">
<ele>0.000000</ele>
<time>2013-06-08T12:39:15.026Z</time>
</trkpt>
<trkpt lat="33.0565811" lon="35.1507964">
<ele>0.000000</ele>
<time>2013-06-08T12:39:20.016Z</time>
</trkpt>
<trkpt lat="33.0603143" lon="35.1506687">
<ele>0.000000</ele>
<time>2013-06-08T12:39:22.025Z</time>
</trkpt>
<trkpt lat="33.0634130" lon="35.1498303">
<ele>0.000000</ele>
<time>2013-06-08T12:39:24.017Z</time>
</trkpt>
<trkpt lat="33.0653497" lon="35.1492018">
<ele>0.000000</ele>
<time>2013-06-08T12:39:26.067Z</time>
</trkpt>
<trkpt lat="33.0668288" lon="35.1490754">
<ele>0.000000</ele>
<time>2013-06-08T12:39:28.055Z</time>
</trkpt>
<trkpt lat="33.0686608" lon="35.1499107">
<ele>0.000000</ele>
<time>2013-06-08T12:39:30.000Z</time>
</trkpt>
<trkpt lat="33.0705288" lon="35.1520426">
<ele>0.000000</ele>
<time>2013-06-08T12:39:35.053Z</time>
</trkpt>
<trkpt lat="33.0730273" lon="35.1488623">
<ele>0.000000</ele>
<time>2013-06-08T12:39:38.017Z</time>
</trkpt>
<trkpt lat="33.0750309" lon="35.1431307">
<ele>0.000000</ele>
<time>2013-06-08T12:39:40.058Z</time>
</trkpt>
<trkpt lat="33.0759784" lon="35.1385290">
<ele>0.000000</ele>
<time>2013-06-08T12:39:44.005Z</time>
</trkpt>
<trkpt lat="33.0769982" lon="35.1364368">
<ele>0.000000</ele>
<time>2013-06-08T12:39:45.088Z</time>
</trkpt>
<trkpt lat="33.0771378" lon="35.1347636">
<ele>0.000000</ele>
<time>2013-06-08T12:39:49.023Z</time>
</trkpt>
<trkpt lat="33.0757268" lon="35.1319204">
<ele>0.000000</ele>
<time>2013-06-08T12:39:51.041Z</time>
</trkpt>
<trkpt lat="33.0747012" lon="35.1268183">
<ele>0.000000</ele>
<time>2013-06-08T12:39:54.082Z</time>
</trkpt>
<trkpt lat="33.0746290" lon="35.1247689">
<ele>0.000000</ele>
<time>2013-06-08T12:39:57.051Z</time>
</trkpt>
<trkpt lat="33.0747265" lon="35.1156504">
<ele>0.000000</ele>
<time>2013-06-08T12:40:01.030Z</time>
</trkpt>
<trkpt lat="33.0714856" lon="35.1149008">
<ele>0.000000</ele>
<time>2013-06-08T12:40:07.091Z</time>
</trkpt>
<trkpt lat="33.0652471" lon="35.1100139">
<ele>0.000000</ele>
<time>2013-06-08T12:40:10.038Z</time>
</trkpt>
<trkpt lat="33.0565417" lon="35.1039177">
<ele>0.000000</ele>
<time>2013-06-08T12:40:15.044Z</time>
</trkpt>
<trkpt lat="33.0529838" lon="35.1032527">
<ele>0.000000</ele>
<time>2013-06-08T12:40:18.066Z</time>
</trkpt>
<trkpt lat="33.0502018" lon="35.1035068">
<ele>0.000000</ele>
<time>2013-06-08T12:40:24.082Z</time>
</trkpt>
<trkpt lat="33.0492160" lon="35.1039261">
<ele>0.000000</ele>
<time>2013-06-08T12:40:28.080Z</time>
</trkpt>
<trkpt lat="33.0458018" lon="35.1059370">
<ele>0.000000</ele>
<time>2013-06-08T12:40:31.096Z</time>
</trkpt>
<trkpt lat="33.0449932" lon="35.1074432">
<ele>0.000000</ele>
<time>2013-06-08T12:40:35.006Z</time>
</trkpt>
<trkpt lat="33.0444678" lon="35.1102871">
<ele>0.000000</ele>
<time>2013-06-08T12:40:38.000Z</time>
</trkpt>
</trkseg>
</trk>
</gpx>
